Time;durP1;ratioP1;P1;durP2;ratioP2;P2;SDS_P1;SDS_P2;PMS_P1;PMS_P2;Temp;Humidity;BMP_temperature;BMP_pressure;BME280_temperature;BME280_humidity;BME280_pressure;Samples;Min_cycle;Max_cycle;Signal;HPM_P1;HPM_P2
2022/06/01 00:01:24;;;;;;;23.63;9.40;;;21.90;99.90;;;;;;4941139;29;20055;-91
2022/06/01 00:03:50;;;;;;;19.30;9.70;;;22.00;99.90;;;;;;4956246;29;20532;-91
2022/06/01 00:06:17;;;;;;;22.13;9.02;;;21.90;99.90;;;;;;4940329;29;20047;-91
2022/06/01 00:08:44;;;;;;;20.27;9.20;;;21.90;99.90;;;;;;4940305;29;20023;-92
2022/06/01 00:11:11;;;;;;;18.38;7.80;;;21.90;99.90;;;;;;4940473;29;20054;-91
2022/06/01 00:13:38;;;;;;;17.35;7.88;;;21.90;99.90;;;;;;4955974;29;20027;-91
2022/06/01 00:16:07;;;;;;;14.70;8.15;;;21.90;99.90;;;;;;4939892;28;20039;-92
2022/06/01 00:18:36;;;;;;;13.82;7.43;;;21.90;99.90;;;;;;4939677;29;20036;-91
2022/06/01 00:21:03;;;;;;;17.10;8.57;;;21.90;99.90;;;;;;4956128;29;20031;-93
2022/06/01 00:23:31;;;;;;;21.65;8.00;;;21.90;99.90;;;;;;4939880;29;20082;-90
2022/06/01 00:25:58;;;;;;;19.77;7.22;;;21.90;99.90;;;;;;4939788;29;20089;-90
2022/06/01 00:28:25;;;;;;;12.85;7.43;;;21.90;99.90;;;;;;4955915;29;20031;-91
2022/06/01 00:30:52;;;;;;;17.13;7.38;;;21.80;99.90;;;;;;4955682;29;20118;-91
2022/06/01 00:33:21;;;;;;;15.23;7.68;;;21.80;99.90;;;;;;4939911;29;20135;-92
2022/06/01 00:35:48;;;;;;;18.80;7.45;;;21.70;99.90;;;;;;4939901;29;20039;-92
2022/06/01 00:38:16;;;;;;;15.52;7.68;;;21.70;99.90;;;;;;4939910;29;20035;-91
2022/06/01 00:40:44;;;;;;;18.10;7.60;;;21.70;99.90;;;;;;4939804;29;20024;-92
2022/06/01 00:43:22;;;;;;;19.60;7.82;;;21.70;99.90;;;;;;4939779;29;20031;-92
2022/06/01 00:45:49;;;;;;;15.20;8.10;;;21.70;99.90;;;;;;4939689;29;20028;-92
2022/06/01 00:48:18;;;;;;;22.55;8.40;;;21.70;99.90;;;;;;4955686;29;20023;-91
2022/06/01 00:50:51;;;;;;;19.88;7.95;;;21.60;99.90;;;;;;4955690;29;20476;-91
2022/06/01 00:53:28;;;;;;;17.02;8.20;;;21.60;99.90;;;;;;4939764;29;20086;-92
2022/06/01 00:56:03;;;;;;;25.52;8.60;;;21.60;99.90;;;;;;4939526;29;20035;-92
2022/06/01 00:58:39;;;;;;;20.65;8.27;;;21.60;99.90;;;;;;4939441;29;20070;-91
2022/06/01 01:01:08;;;;;;;20.77;8.52;;;21.70;99.90;;;;;;4955307;28;20047;-91
2022/06/01 01:03:39;;;;;;;23.10;8.63;;;21.60;99.90;;;;;;4939402;29;20058;-91
2022/06/01 01:06:12;;;;;;;23.23;8.20;;;21.60;99.90;;;;;;4955232;29;20378;-92
2022/06/01 01:08:40;;;;;;;17.30;7.80;;;21.60;99.90;;;;;;4955269;29;20032;-93
2022/06/01 01:11:09;;;;;;;18.13;7.78;;;21.70;99.90;;;;;;4955543;29;20043;-92
2022/06/01 01:13:45;;;;;;;19.42;8.05;;;21.60;99.90;;;;;;4939228;29;20033;-93
2022/06/01 01:16:14;;;;;;;21.73;7.88;;;21.60;99.90;;;;;;4939284;29;20043;-93
2022/06/01 01:18:48;;;;;;;16.00;7.65;;;21.60;99.90;;;;;;4955274;29;20023;-92
2022/06/01 01:21:18;;;;;;;26.42;7.70;;;21.60;99.90;;;;;;4956407;29;20066;-91
2022/06/01 01:23:48;;;;;;;15.05;6.28;;;21.60;99.90;;;;;;4928995;29;20150;-92
2022/06/01 01:26:15;;;;;;;26.73;8.32;;;21.60;99.90;;;;;;4956163;29;20028;-91
2022/06/01 01:28:42;;;;;;;15.43;6.88;;;21.60;99.90;;;;;;4957198;28;20050;-92
2022/06/01 01:31:22;;;;;;;23.08;6.70;;;21.60;99.90;;;;;;4958969;29;20027;-91
2022/06/01 01:33:52;;;;;;;18.80;6.97;;;21.60;99.90;;;;;;4942968;29;20166;-92
2022/06/01 01:36:31;;;;;;;19.88;6.55;;;21.50;99.90;;;;;;4958902;29;20048;-92
2022/06/01 01:39:14;;;;;;;17.48;6.50;;;21.50;99.90;;;;;;4943764;29;20465;-91
2022/06/01 01:41:45;;;;;;;17.33;5.78;;;21.40;99.90;;;;;;4959038;29;20051;-92
2022/06/01 01:44:25;;;;;;;18.63;7.00;;;21.30;99.90;;;;;;4943215;29;20023;-92
2022/06/01 01:46:53;;;;;;;24.73;6.32;;;21.30;99.90;;;;;;4927012;29;20028;-91
2022/06/01 01:49:26;;;;;;;21.60;6.78;;;21.30;99.90;;;;;;4959080;29;20058;-91
2022/06/01 01:51:59;;;;;;;19.95;7.32;;;21.20;99.90;;;;;;4944262;29;20066;-92
2022/06/01 01:54:48;;;;;;;15.25;6.13;;;21.20;99.90;;;;;;4943613;29;20031;-92
2022/06/01 01:57:36;;;;;;;17.83;6.85;;;21.20;99.90;;;;;;4943755;29;20050;-91
2022/06/01 02:00:14;;;;;;;14.70;7.03;;;21.20;99.90;;;;;;4943414;28;20114;-91
2022/06/01 02:02:55;;;;;;;16.13;5.97;;;21.10;99.90;;;;;;4943599;29;20039;-91
2022/06/01 02:06:05;;;;;;;14.10;6.00;;;21.10;99.90;;;;;;4959228;29;20035;-92
2022/06/01 02:08:34;;;;;;;17.40;5.78;;;21.00;99.90;;;;;;4928939;29;20037;-90
2022/06/01 02:13:55;;;;;;;13.95;6.22;;;21.00;99.90;;;;;;4942246;29;20563;-91
2022/06/01 02:16:27;;;;;;;18.55;5.45;;;21.00;99.90;;;;;;4942213;29;20045;-92
2022/06/01 02:18:59;;;;;;;18.88;6.28;;;21.00;99.90;;;;;;4958365;29;20027;-90
2022/06/01 02:21:28;;;;;;;19.55;6.72;;;21.00;99.90;;;;;;4942389;29;20031;-92
2022/06/01 02:24:01;;;;;;;13.88;6.20;;;20.90;99.90;;;;;;4961727;29;20452;-91
2022/06/01 02:26:29;;;;;;;13.32;5.40;;;20.90;99.90;;;;;;4946969;29;20083;-91
2022/06/01 02:29:16;;;;;;;16.23;5.38;;;20.90;99.90;;;;;;4942173;29;20047;-92
2022/06/01 02:31:44;;;;;;;11.35;5.38;;;20.80;99.90;;;;;;4957941;29;20035;-92
2022/06/01 02:34:13;;;;;;;14.18;5.43;;;20.80;99.90;;;;;;4957959;29;20027;-91
2022/06/01 02:36:43;;;;;;;16.73;6.05;;;20.70;99.90;;;;;;4957816;29;20085;-92
2022/06/01 02:39:14;;;;;;;18.98;5.97;;;20.70;99.90;;;;;;4942017;28;20069;-92
2022/06/01 02:42:42;;;;;;;16.65;6.32;;;20.70;99.90;;;;;;4957389;29;20031;-92
2022/06/01 02:44:41;;;;;;;15.52;6.20;;;20.70;99.90;;;;;;4929891;29;20039;-92
2022/06/01 02:47:07;;;;;;;18.02;6.10;;;20.60;99.90;;;;;;4941765;29;20062;-91
2022/06/01 02:49:34;;;;;;;21.00;6.55;;;20.60;99.90;;;;;;4942283;29;20028;-91
2022/06/01 02:52:02;;;;;;;20.33;6.53;;;20.60;99.90;;;;;;4943418;29;20054;-91
2022/06/01 02:54:30;;;;;;;17.20;5.85;;;20.60;99.90;;;;;;4941978;29;20082;-90
2022/06/01 02:56:57;;;;;;;19.63;6.82;;;20.60;99.90;;;;;;4941337;29;20035;-91
2022/06/01 02:59:24;;;;;;;23.15;6.50;;;20.60;99.90;;;;;;4941637;29;20024;-91
2022/06/01 03:01:51;;;;;;;15.02;7.90;;;20.60;99.90;;;;;;4941440;29;20126;-91
2022/06/01 03:04:18;;;;;;;22.92;6.88;;;20.60;99.90;;;;;;4943668;29;20441;-90
2022/06/01 03:06:44;;;;;;;17.52;6.18;;;20.60;99.90;;;;;;4929910;29;20042;-91
2022/06/01 03:09:11;;;;;;;22.92;7.63;;;20.60;99.90;;;;;;4941490;29;20019;-92
2022/06/01 03:11:38;;;;;;;20.77;7.65;;;20.60;99.90;;;;;;4942659;29;20035;-90
2022/06/01 03:14:04;;;;;;;35.45;7.35;;;20.60;99.90;;;;;;4944193;29;20055;-92
2022/06/01 03:16:31;;;;;;;29.52;7.22;;;20.60;99.90;;;;;;4941218;29;20045;-91
2022/06/01 03:19:00;;;;;;;19.13;8.30;;;20.60;99.90;;;;;;4941236;29;20032;-91
2022/06/01 03:21:27;;;;;;;90.55;11.02;;;20.60;99.90;;;;;;4939124;29;20050;-91
2022/06/01 03:24:01;;;;;;;26.58;10.05;;;20.60;99.90;;;;;;4923311;29;20035;-91
2022/06/01 03:26:27;;;;;;;24.65;10.05;;;20.60;99.90;;;;;;4939572;29;20409;-92
2022/06/01 03:28:54;;;;;;;24.05;10.80;;;20.70;99.90;;;;;;4939016;29;20038;-91
2022/06/01 03:31:20;;;;;;;20.63;10.13;;;20.80;99.90;;;;;;4922999;29;20036;-91
2022/06/01 03:33:47;;;;;;;21.25;9.23;;;20.90;99.90;;;;;;4938821;29;20039;-92
2022/06/01 03:36:15;;;;;;;20.85;9.90;;;20.90;99.90;;;;;;4921909;29;20044;-91
2022/06/01 03:38:41;;;;;;;18.42;7.95;;;21.00;99.90;;;;;;4937840;29;20032;-91
2022/06/01 03:41:08;;;;;;;18.90;8.68;;;21.00;99.90;;;;;;4921650;29;20054;-91
2022/06/01 03:45:55;;;;;;;17.42;6.53;;;20.90;99.90;;;;;;4937645;29;20031;-91
2022/06/01 03:46:22;;;;;;;21.77;6.93;;;20.90;99.90;;;;;;4921814;29;20118;-90
2022/06/01 03:48:49;;;;;;;12.38;6.65;;;20.90;99.90;;;;;;4921582;29;20127;-92
2022/06/01 03:51:16;;;;;;;11.68;7.35;;;20.90;99.90;;;;;;4937815;29;20068;-91
2022/06/01 03:53:46;;;;;;;11.93;5.80;;;20.90;99.90;;;;;;4941522;29;20118;-91
2022/06/01 03:56:13;;;;;;;8.43;5.65;;;21.00;99.90;;;;;;4957472;29;20031;-91
2022/06/01 03:58:40;;;;;;;9.02;6.22;;;21.00;99.90;;;;;;4941518;29;20039;-91
2022/06/01 04:01:07;;;;;;;12.10;6.38;;;21.00;99.90;;;;;;4940970;29;20228;-92
2022/06/01 04:03:34;;;;;;;7.70;5.05;;;21.10;99.90;;;;;;4940971;29;20131;-91
2022/06/01 04:06:03;;;;;;;11.25;5.55;;;21.20;99.90;;;;;;4956456;29;20050;-92
2022/06/01 04:08:30;;;;;;;9.93;5.68;;;21.20;99.90;;;;;;4940509;29;20054;-91
2022/06/01 04:10:56;;;;;;;8.98;5.25;;;21.30;99.90;;;;;;4940619;29;20039;-91
2022/06/01 04:13:26;;;;;;;8.30;5.15;;;21.40;99.90;;;;;;4940225;29;20031;-92
2022/06/01 04:15:53;;;;;;;15.10;6.65;;;21.40;99.90;;;;;;4956100;29;20057;-91
2022/06/01 04:18:20;;;;;;;14.40;5.55;;;21.50;99.90;;;;;;4940408;29;20110;-91
2022/06/01 04:20:50;;;;;;;8.20;5.07;;;21.70;99.90;;;;;;4956294;29;20382;-93
2022/06/01 04:23:16;;;;;;;12.32;6.22;;;21.90;99.90;;;;;;4955855;29;20510;-93
2022/06/01 04:25:44;;;;;;;18.27;7.95;;;22.00;99.90;;;;;;4955888;29;20031;-91
2022/06/01 04:28:11;;;;;;;19.48;7.68;;;22.10;99.90;;;;;;4940157;29;20035;-91
2022/06/01 04:30:38;;;;;;;14.50;5.95;;;22.30;99.90;;;;;;4957466;29;20031;-93
2022/06/01 04:33:14;;;;;;;10.90;4.82;;;22.60;99.90;;;;;;4941928;29;20031;-92
2022/06/01 04:35:41;;;;;;;11.98;4.53;;;22.90;99.90;;;;;;4958205;29;20039;-91
2022/06/01 04:38:13;;;;;;;7.47;4.15;;;23.80;99.90;;;;;;4940702;29;20035;-92
2022/06/01 04:40:48;;;;;;;7.45;3.47;;;24.80;99.90;;;;;;4941262;29;20035;-91
2022/06/01 04:43:22;;;;;;;7.00;3.35;;;25.80;99.90;;;;;;4959754;29;20035;-92
2022/06/01 04:45:54;;;;;;;10.40;3.70;;;26.60;99.90;;;;;;4942897;29;20094;-92
2022/06/01 04:48:22;;;;;;;8.60;3.45;;;27.10;99.90;;;;;;4951409;29;20031;-92
2022/06/01 04:50:51;;;;;;;9.65;5.03;;;27.90;99.90;;;;;;4948542;29;20027;-93
2022/06/01 04:53:18;;;;;;;8.02;4.25;;;28.20;99.90;;;;;;4946305;29;20111;-93
2022/06/01 04:55:46;;;;;;;15.35;4.70;;;28.50;99.90;;;;;;4961738;29;20042;-92
2022/06/01 04:58:13;;;;;;;8.60;4.95;;;29.40;99.90;;;;;;4947910;29;20031;-93
2022/06/01 05:00:41;;;;;;;19.50;7.25;;;30.00;99.90;;;;;;4944550;29;20059;-94
2022/06/01 05:03:09;;;;;;;13.75;6.68;;;30.40;99.90;;;;;;4961937;29;20097;-92
2022/06/01 05:05:39;;;;;;;11.10;5.75;;;30.60;99.90;;;;;;4947250;29;20032;-93
2022/06/01 05:08:07;;;;;;;11.07;4.15;;;30.90;99.90;;;;;;4945839;29;20118;-92
2022/06/01 05:10:35;;;;;;;10.25;4.38;;;31.40;99.90;;;;;;4944789;29;20091;-92
2022/06/01 05:13:03;;;;;;;11.48;3.50;;;31.60;99.90;;;;;;4945159;29;20059;-93
2022/06/01 05:15:29;;;;;;;9.95;3.42;;;31.70;99.90;;;;;;4944025;29;20477;-92
2022/06/01 05:17:57;;;;;;;6.85;3.05;;;31.40;99.90;;;;;;4943819;29;20039;-93
2022/06/01 05:20:23;;;;;;;9.10;3.75;;;31.50;99.90;;;;;;4942030;29;20060;-93
2022/06/01 05:22:50;;;;;;;9.13;3.80;;;31.40;99.90;;;;;;4942417;29;20016;-92
2022/06/01 05:25:16;;;;;;;11.55;3.15;;;31.20;99.90;;;;;;4955196;29;20038;-93
2022/06/01 05:27:42;;;;;;;9.35;4.13;;;31.60;99.90;;;;;;4954044;29;20023;-93
2022/06/01 05:30:10;;;;;;;10.95;5.35;;;32.20;99.90;;;;;;4954141;29;20027;-93
2022/06/01 07:46:35;;;;;;;11.70;4.53;;;32.30;99.90;;;;;;5489655;23;20205;-93
2022/06/01 07:49:18;;;;;;;14.32;3.90;;;33.10;99.90;;;;;;4948308;28;20027;-93
2022/06/01 07:51:45;;;;;;;11.73;4.32;;;32.80;99.90;;;;;;4945021;28;20061;-92
2022/06/01 08:14:43;;;;;;;9.98;4.47;;;32.10;99.90;;;;;;4841967;29;20046;-93
2022/06/01 08:17:13;;;;;;;12.57;4.78;;;31.40;99.90;;;;;;4847553;29;20668;-94
2022/06/01 08:19:40;;;;;;;11.38;4.18;;;31.50;99.90;;;;;;4862892;29;20512;-94
2022/06/01 08:25:20;;;;;;;11.23;4.47;;;31.70;99.90;;;;;;4849445;29;20061;-93
2022/06/01 08:27:59;;;;;;;13.85;3.90;;;31.20;99.90;;;;;;4849714;29;20086;-93
2022/06/01 08:30:35;;;;;;;15.88;4.68;;;30.70;99.90;;;;;;4847661;29;20034;-91
2022/06/01 08:33:03;;;;;;;15.57;4.20;;;30.90;99.90;;;;;;4850123;29;20041;-91
2022/06/01 08:35:34;;;;;;;23.33;4.70;;;30.90;99.90;;;;;;4846945;29;20124;-91
2022/06/01 08:38:59;;;;;;;9.38;3.78;;;31.10;99.90;;;;;;4846047;29;20042;-93
2022/06/01 08:41:33;;;;;;;14.05;4.07;;;31.20;99.90;;;;;;4811125;29;20397;-92
2022/06/01 08:44:54;;;;;;;14.60;4.70;;;31.30;99.90;;;;;;4811688;29;20046;-92
2022/06/01 08:54:09;;;;;;;18.10;3.92;;;31.60;99.90;;;;;;4956546;23;20092;-94
2022/06/01 08:56:43;;;;;;;16.77;3.95;;;31.20;99.90;;;;;;4905450;29;20386;-94
2022/06/01 08:59:50;;;;;;;12.57;3.97;;;30.90;99.90;;;;;;4920791;29;20043;-92
2022/06/01 09:02:57;;;;;;;19.33;4.65;;;30.90;99.90;;;;;;4918537;29;20027;-93
2022/06/01 09:05:53;;;;;;;11.40;3.92;;;31.00;99.90;;;;;;4933893;29;20031;-95
2022/06/01 09:08:58;;;;;;;18.23;4.50;;;31.00;99.90;;;;;;4927187;29;20036;-94
2022/06/01 13:49:43;;;;;;;9.50;3.75;;;29.50;99.90;;;;;;4931820;29;20049;-92
2022/06/01 13:52:14;;;;;;;11.90;3.80;;;29.60;99.90;;;;;;4918274;29;20042;-93
2022/06/01 13:54:47;;;;;;;11.30;3.47;;;29.90;99.90;;;;;;4904396;29;20042;-92
2022/06/01 13:57:26;;;;;;;13.38;3.85;;;29.80;99.90;;;;;;4904883;29;20039;-93
2022/06/01 14:00:04;;;;;;;14.48;3.92;;;29.90;99.90;;;;;;4916956;29;20028;-92
2022/06/01 14:02:45;;;;;;;13.73;4.20;;;29.90;99.90;;;;;;4930544;29;20100;-93
2022/06/01 14:05:18;;;;;;;17.20;4.38;;;29.90;99.90;;;;;;4917993;29;20028;-94
2022/06/01 14:08:02;;;;;;;10.20;4.20;;;30.10;99.90;;;;;;4911523;29;20461;-93
2022/06/01 14:10:40;;;;;;;15.73;4.25;;;30.30;99.90;;;;;;4915197;29;20126;-93
2022/06/01 14:13:10;;;;;;;10.38;4.10;;;30.00;99.90;;;;;;4916686;29;20071;-93
2022/06/01 14:15:39;;;;;;;16.38;4.10;;;29.90;99.90;;;;;;4919066;29;20032;-93
2022/06/01 14:18:15;;;;;;;12.85;4.65;;;29.70;99.90;;;;;;4934944;29;20036;-92
2022/06/01 14:20:43;;;;;;;17.63;4.95;;;29.60;99.90;;;;;;4916973;29;20119;-92
2022/06/01 14:23:09;;;;;;;13.20;4.70;;;29.60;99.90;;;;;;4896565;29;20566;-92
2022/06/01 14:28:30;;;;;;;16.55;4.68;;;29.80;99.90;;;;;;4868774;29;20053;-92
2022/06/01 14:31:04;;;;;;;12.97;3.83;;;29.80;99.90;;;;;;4893622;29;20040;-93
2022/06/01 14:33:31;;;;;;;14.20;4.13;;;29.80;99.90;;;;;;4876242;29;20048;-93
2022/06/01 14:36:09;;;;;;;10.48;4.18;;;29.80;99.90;;;;;;4898218;29;20031;-94
2022/06/01 14:39:21;;;;;;;10.95;4.05;;;29.70;99.90;;;;;;4857376;29;20052;-92
2022/06/01 14:41:56;;;;;;;14.98;3.80;;;29.60;99.90;;;;;;4887814;29;20065;-93
2022/06/01 14:44:24;;;;;;;15.45;4.68;;;29.60;99.90;;;;;;4904870;23;20053;-94
2022/06/01 14:46:52;;;;;;;11.88;3.67;;;29.50;99.90;;;;;;4897069;29;20131;-93
2022/06/01 14:49:19;;;;;;;13.70;4.50;;;29.50;99.90;;;;;;4896921;29;20040;-92
2022/06/01 14:52:04;;;;;;;15.02;3.75;;;29.60;99.90;;;;;;4903541;29;20029;-93
2022/06/01 14:54:37;;;;;;;13.52;4.10;;;29.60;99.90;;;;;;4917919;29;20024;-94
2022/06/01 14:57:05;;;;;;;13.93;4.53;;;29.60;99.90;;;;;;4902841;29;20084;-93
2022/06/01 14:59:35;;;;;;;13.90;4.18;;;29.80;99.90;;;;;;4917613;29;20035;-93
2022/06/01 15:02:01;;;;;;;11.70;4.88;;;29.60;99.90;;;;;;4897226;29;20055;-94
2022/06/01 15:04:39;;;;;;;10.73;3.60;;;29.60;99.90;;;;;;4910036;29;20043;-92
2022/06/01 15:07:06;;;;;;;17.40;4.35;;;29.60;99.90;;;;;;4907758;29;20086;-93
2022/06/01 15:09:36;;;;;;;14.88;3.97;;;29.80;99.90;;;;;;4903821;29;20058;-92
2022/06/01 15:12:06;;;;;;;11.07;4.15;;;29.70;99.90;;;;;;4916922;29;20028;-93
2022/06/01 15:14:35;;;;;;;14.55;3.83;;;29.50;99.90;;;;;;4913549;29;20036;-93
2022/06/01 15:17:17;;;;;;;14.57;4.53;;;29.60;99.90;;;;;;4919145;29;20032;-93
2022/06/01 15:20:11;;;;;;;8.57;3.40;;;29.70;99.90;;;;;;4920203;29;20032;-94
2022/06/01 15:43:37;;;;;;;19.20;3.95;;;29.00;99.90;;;;;;5341127;23;20078;-93
2022/06/01 15:46:04;;;;;;;10.73;3.50;;;28.90;99.90;;;;;;4943905;28;20034;-92
2022/06/01 15:48:34;;;;;;;9.02;3.58;;;28.90;99.90;;;;;;4944555;28;20121;-90
2022/06/01 15:51:00;;;;;;;15.02;3.90;;;28.90;99.90;;;;;;4943998;28;20022;-91
2022/06/01 15:53:27;;;;;;;15.57;3.38;;;29.00;99.90;;;;;;4948544;28;20102;-93
2022/06/01 15:55:53;;;;;;;14.55;3.60;;;29.00;99.90;;;;;;4948475;28;20034;-92
2022/06/01 15:58:21;;;;;;;13.10;3.92;;;28.90;99.90;;;;;;4964636;28;20117;-92
2022/06/01 16:00:48;;;;;;;13.25;4.07;;;28.80;99.90;;;;;;4949129;28;20039;-92
2022/06/01 16:03:16;;;;;;;13.13;4.05;;;28.70;99.90;;;;;;4950607;28;20054;-91
2022/06/01 16:05:43;;;;;;;14.82;3.65;;;28.70;99.90;;;;;;4967510;28;20031;-93
2022/06/01 16:08:11;;;;;;;14.85;4.10;;;28.70;99.90;;;;;;4948421;28;20034;-91
2022/06/01 16:10:38;;;;;;;16.73;3.45;;;28.60;99.90;;;;;;4947548;28;20042;-91
2022/06/01 16:13:05;;;;;;;12.70;3.80;;;28.50;99.90;;;;;;4946855;28;20023;-92
2022/06/01 16:15:34;;;;;;;15.80;3.55;;;28.30;99.90;;;;;;4925706;29;20094;-91
2022/06/01 16:18:02;;;;;;;10.32;3.63;;;28.10;99.90;;;;;;4924990;29;20071;-92
2022/06/01 16:20:30;;;;;;;11.55;3.55;;;28.00;99.90;;;;;;4909156;29;20042;-90
2022/06/01 16:22:57;;;;;;;15.65;3.28;;;27.90;99.90;;;;;;4909465;29;20039;-92
2022/06/01 16:25:25;;;;;;;10.73;3.20;;;27.90;99.90;;;;;;4909476;29;20031;-91
2022/06/01 16:27:51;;;;;;;6.40;2.83;;;27.90;99.90;;;;;;4909529;29;20195;-92
2022/06/01 16:30:18;;;;;;;13.63;3.50;;;27.90;99.90;;;;;;4925586;29;20122;-92
2022/06/01 16:32:47;;;;;;;19.23;3.40;;;27.80;99.90;;;;;;4908633;29;20521;-90
2022/06/01 16:35:22;;;;;;;10.23;3.50;;;27.70;99.90;;;;;;4907007;29;20058;-92
2022/06/01 16:37:51;;;;;;;8.07;2.70;;;27.70;99.90;;;;;;4922397;29;20036;-91
2022/06/01 16:40:20;;;;;;;11.27;3.42;;;27.50;99.90;;;;;;4906533;29;20397;-92
2022/06/01 16:42:50;;;;;;;19.77;3.50;;;27.60;99.90;;;;;;4907532;29;20051;-91
2022/06/01 16:45:23;;;;;;;12.90;3.63;;;27.70;99.90;;;;;;4921930;29;20524;-91
2022/06/01 16:47:50;;;;;;;7.40;4.00;;;27.70;99.90;;;;;;4920920;29;20028;-93
2022/06/01 16:50:19;;;;;;;10.70;3.55;;;27.80;99.90;;;;;;4904555;29;20027;-92
2022/06/01 16:52:47;;;;;;;8.82;3.83;;;27.70;99.90;;;;;;4917594;29;20050;-92
2022/06/01 16:55:15;;;;;;;14.45;3.92;;;27.50;99.90;;;;;;4939432;29;20027;-90
2022/06/01 16:57:42;;;;;;;19.35;3.92;;;27.30;99.90;;;;;;4940374;29;20039;-91
2022/06/01 17:00:11;;;;;;;13.57;3.60;;;27.20;99.90;;;;;;4939486;29;20106;-92
2022/06/01 17:02:40;;;;;;;9.88;3.53;;;27.20;99.90;;;;;;4939194;29;20058;-91
2022/06/01 17:05:08;;;;;;;12.20;4.63;;;27.10;99.90;;;;;;4939122;29;20114;-91
2022/06/01 17:07:35;;;;;;;12.32;3.83;;;27.00;99.90;;;;;;4939127;29;20047;-91
2022/06/01 17:10:03;;;;;;;16.98;4.53;;;26.90;99.90;;;;;;4939856;29;20488;-90
2022/06/01 17:12:29;;;;;;;11.70;3.83;;;26.80;99.90;;;;;;4938955;29;20023;-91
2022/06/01 17:14:56;;;;;;;12.35;4.00;;;26.60;99.90;;;;;;4939193;29;20054;-91
2022/06/01 17:17:28;;;;;;;11.63;3.53;;;26.50;99.90;;;;;;4939169;29;20035;-90
2022/06/01 17:19:55;;;;;;;13.05;3.90;;;26.40;99.90;;;;;;4939146;29;20034;-91
2022/06/01 17:22:22;;;;;;;14.70;3.78;;;26.40;99.90;;;;;;4938846;29;20548;-92
2022/06/01 17:24:48;;;;;;;11.25;3.80;;;26.30;99.90;;;;;;4940612;29;20114;-91
2022/06/01 17:27:15;;;;;;;7.60;3.20;;;26.30;99.90;;;;;;4939114;29;20064;-91
2022/06/01 17:29:41;;;;;;;12.63;4.15;;;26.20;99.90;;;;;;4938829;29;20496;-92
2022/06/01 17:32:10;;;;;;;13.23;4.28;;;26.10;99.90;;;;;;4938878;29;20528;-91
2022/06/01 17:34:41;;;;;;;10.38;3.92;;;26.00;99.90;;;;;;4938931;29;20031;-91
2022/06/01 17:37:08;;;;;;;10.85;3.90;;;25.90;99.90;;;;;;4938846;29;20043;-91
2022/06/01 17:39:37;;;;;;;14.02;4.32;;;25.80;99.90;;;;;;4954719;29;20035;-91
2022/06/01 17:42:04;;;;;;;13.05;3.72;;;25.80;99.90;;;;;;4939200;29;20029;-91
2022/06/01 17:44:30;;;;;;;16.30;4.28;;;25.70;99.90;;;;;;4922697;29;20062;-91
2022/06/01 17:47:03;;;;;;;10.50;3.85;;;25.60;99.90;;;;;;4905063;29;20043;-91
2022/06/01 17:49:29;;;;;;;10.73;4.03;;;25.50;99.90;;;;;;4904604;29;20573;-91
2022/06/01 17:51:55;;;;;;;13.77;4.85;;;25.40;99.90;;;;;;4903904;29;20023;-90
2022/06/01 17:54:26;;;;;;;12.73;4.53;;;25.40;99.90;;;;;;4910265;29;20099;-92
2022/06/01 17:56:53;;;;;;;11.05;3.90;;;25.30;99.90;;;;;;4913905;29;20055;-91
2022/06/01 18:02:11;;;;;;;11.75;4.20;;;25.20;99.90;;;;;;5052848;23;20081;-93
2022/06/01 18:11:14;;;;;;;18.80;5.20;;;25.00;99.90;;;;;;5030000;23;20026;-92
2022/06/01 18:14:13;;;;;;;16.10;5.03;;;24.90;99.90;;;;;;4965588;29;20046;-91
2022/06/01 18:16:48;;;;;;;13.10;5.03;;;24.70;99.90;;;;;;4931092;29;20046;-93
2022/06/01 18:35:02;;;;;;;17.25;5.10;;;24.20;99.90;;;;;;4918341;29;20088;-93
2022/06/01 18:38:10;;;;;;;18.27;6.03;;;24.20;99.90;;;;;;4880277;29;20033;-92
2022/06/01 18:57:18;;;;;;;20.60;6.90;;;23.70;99.90;;;;;;5087057;23;20050;-92
2022/06/01 19:18:39;;;;;;;24.90;10.23;;;23.10;99.90;;;;;;5013262;23;20047;-92
2022/06/01 20:00:05;;;;;;;15.02;6.30;;;22.70;99.90;;;;;;1832881;23;20444;-89
2022/06/01 20:02:35;;;;;;;17.15;7.20;;;22.70;99.90;;;;;;4940742;29;20456;-90
2022/06/01 20:05:03;;;;;;;17.42;6.65;;;22.60;99.90;;;;;;4924402;29;20038;-90
2022/06/01 20:07:32;;;;;;;24.52;7.72;;;22.50;99.90;;;;;;4924594;29;20023;-91
2022/06/01 20:09:59;;;;;;;21.65;8.02;;;22.50;99.90;;;;;;4923852;29;20042;-90
2022/06/01 20:15:14;;;;;;;22.83;8.50;;;22.40;99.90;;;;;;4940605;29;20038;-91
2022/06/01 20:17:41;;;;;;;19.55;8.27;;;22.30;99.90;;;;;;4924238;29;20567;-90
2022/06/01 20:20:10;;;;;;;21.90;7.97;;;22.30;99.90;;;;;;4924214;29;20039;-90
2022/06/01 20:22:38;;;;;;;24.80;8.27;;;22.20;99.90;;;;;;4923925;29;20067;-88
2022/06/01 20:25:07;;;;;;;23.60;9.95;;;22.20;99.90;;;;;;4923732;29;20023;-88
2022/06/01 20:27:35;;;;;;;22.80;10.68;;;22.20;99.90;;;;;;4923922;29;20035;-89
2022/06/01 20:30:06;;;;;;;29.38;11.40;;;22.10;99.90;;;;;;4923812;29;20031;-88
2022/06/01 20:32:33;;;;;;;29.15;10.93;;;22.00;99.90;;;;;;4923855;29;20473;-91
2022/06/01 20:35:00;;;;;;;29.90;10.75;;;21.90;99.90;;;;;;4923881;29;20031;-91
2022/06/01 20:37:26;;;;;;;19.95;10.70;;;21.90;99.90;;;;;;4924011;29;20043;-91
2022/06/01 20:39:53;;;;;;;27.30;12.27;;;21.90;99.90;;;;;;4925300;29;20054;-90
2022/06/01 20:42:20;;;;;;;26.70;11.73;;;21.80;99.90;;;;;;4924502;29;20023;-89
2022/06/01 20:44:48;;;;;;;23.55;11.77;;;21.80;99.90;;;;;;4923728;29;20062;-90
2022/06/01 20:47:16;;;;;;;30.25;12.75;;;21.80;99.90;;;;;;4923712;29;20074;-90
2022/06/01 20:49:43;;;;;;;28.42;13.40;;;21.70;99.90;;;;;;4939965;29;20063;-92
2022/06/01 20:52:10;;;;;;;27.85;13.10;;;21.70;99.90;;;;;;4924664;29;20385;-91
2022/06/01 20:54:38;;;;;;;27.77;13.00;;;21.70;99.90;;;;;;4924153;29;20098;-91
2022/06/01 20:57:06;;;;;;;35.28;14.10;;;21.70;99.90;;;;;;4923920;29;20489;-91
2022/06/01 20:59:32;;;;;;;27.85;14.48;;;21.60;99.90;;;;;;4923652;28;20126;-90
2022/06/01 21:02:00;;;;;;;32.40;13.63;;;21.60;99.90;;;;;;4923774;29;20039;-92
2022/06/01 21:04:30;;;;;;;30.88;14.15;;;21.50;99.90;;;;;;4924838;29;20035;-91
2022/06/01 21:06:57;;;;;;;30.10;13.35;;;21.60;99.90;;;;;;4924068;29;20123;-90
2022/06/01 21:09:29;;;;;;;39.88;15.15;;;21.60;99.90;;;;;;4923587;29;20484;-91
2022/06/01 21:12:18;;;;;;;31.48;13.15;;;21.50;99.90;;;;;;4924115;29;20465;-92
2022/06/01 21:14:44;;;;;;;32.00;13.73;;;21.60;99.90;;;;;;4939072;29;20062;-89
2022/06/01 21:17:10;;;;;;;25.42;12.90;;;21.60;99.90;;;;;;4923182;29;20043;-90
2022/06/01 21:19:37;;;;;;;26.27;13.00;;;21.60;99.90;;;;;;4939171;29;20023;-91
2022/06/01 21:22:04;;;;;;;29.35;12.93;;;21.50;99.90;;;;;;4923420;29;20035;-91
2022/06/01 21:24:31;;;;;;;28.48;13.40;;;21.60;99.90;;;;;;4938976;29;20031;-90
2022/06/01 21:26:57;;;;;;;29.20;12.90;;;21.60;99.90;;;;;;4923162;29;20485;-92
2022/06/01 21:29:24;;;;;;;25.45;13.30;;;21.60;99.90;;;;;;4923202;29;20031;-91
2022/06/01 21:32:04;;;;;;;24.05;11.48;;;21.60;99.90;;;;;;4923245;29;20182;-89
2022/06/01 21:34:30;;;;;;;27.73;12.52;;;21.60;99.90;;;;;;4923149;29;20027;-91
2022/06/01 21:36:56;;;;;;;30.08;13.25;;;21.50;99.90;;;;;;4923096;29;20405;-90
2022/06/01 21:39:23;;;;;;;25.38;11.05;;;21.50;99.90;;;;;;4923435;29;20039;-90
2022/06/01 21:41:49;;;;;;;25.05;12.70;;;21.50;99.90;;;;;;4922944;29;20094;-89
2022/06/01 21:44:16;;;;;;;29.27;12.98;;;21.50;99.90;;;;;;4922992;29;20035;-89
2022/06/01 21:46:44;;;;;;;28.02;13.82;;;21.50;99.90;;;;;;4926158;29;20034;-90
2022/06/01 21:49:11;;;;;;;29.85;11.93;;;21.50;99.90;;;;;;4927539;29;20591;-92
2022/06/01 21:51:38;;;;;;;28.48;12.68;;;21.50;99.90;;;;;;4927118;29;20484;-90
2022/06/01 21:54:08;;;;;;;25.05;12.07;;;21.50;99.90;;;;;;4926905;29;20027;-92
2022/06/01 21:56:35;;;;;;;28.55;12.20;;;21.50;99.90;;;;;;4926722;29;20565;-91
2022/06/01 21:59:02;;;;;;;28.30;12.88;;;21.50;99.90;;;;;;4926818;29;20055;-91
2022/06/01 22:01:28;;;;;;;31.80;13.35;;;21.40;99.90;;;;;;4910725;29;20048;-90
2022/06/01 22:03:55;;;;;;;25.05;12.82;;;21.40;99.90;;;;;;4908237;29;20381;-93
2022/06/01 22:06:22;;;;;;;24.05;13.63;;;21.40;99.90;;;;;;4908025;29;20123;-91
2022/06/01 22:08:49;;;;;;;29.85;13.30;;;21.40;99.90;;;;;;4908034;29;20031;-91
2022/06/01 22:14:00;;;;;;;24.85;12.35;;;21.40;99.90;;;;;;4923151;29;20039;-92
2022/06/01 22:16:27;;;;;;;33.58;14.45;;;21.30;99.90;;;;;;4907490;29;20036;-90
2022/06/01 22:18:55;;;;;;;30.60;15.02;;;21.30;99.90;;;;;;4907557;29;20031;-89
2022/06/01 22:21:22;;;;;;;31.38;15.73;;;21.30;99.90;;;;;;4907775;29;20050;-92
2022/06/01 22:23:51;;;;;;;28.38;15.13;;;21.30;99.90;;;;;;4907275;29;20049;-90
2022/06/01 22:26:18;;;;;;;32.88;16.10;;;21.20;99.90;;;;;;4907533;29;20175;-90
2022/06/01 22:28:45;;;;;;;38.58;16.83;;;21.30;99.90;;;;;;4908286;29;20114;-91